Time;durP1;ratioP1;P1;durP2;ratioP2;P2;SDS_P1;SDS_P2;PMS_P1;PMS_P2;Temp;Humidity;BMP_temperature;BMP_pressure;BME280_temperature;BME280_humidity;BME280_pressure;Samples;Min_cycle;Max_cycle;Signal;HPM_P1;HPM_P2
2022/06/15 00:00:06;;;;;;;;;;;25.20;36.10;;;;;;5099800;28;19908;-48
2022/06/15 00:02:32;;;;;;;;;;;25.20;36.10;;;;;;5098430;28;19965;-45
2022/06/15 00:04:58;;;;;;;;;;;25.20;36.10;;;;;;5099560;28;19904;-50
2022/06/15 00:07:23;;;;;;;;;;;25.20;36.10;;;;;;5081724;28;19904;-44
2022/06/15 00:09:49;;;;;;;;;;;25.20;36.20;;;;;;5101235;28;19908;-51
2022/06/15 00:12:15;;;;;;;;;;;25.20;36.20;;;;;;5101467;28;19946;-49
2022/06/15 00:14:41;;;;;;;;;;;25.20;36.20;;;;;;5099568;28;19900;-46
2022/06/15 00:17:08;;;;;;;;;;;25.20;36.20;;;;;;5100793;28;19982;-44
2022/06/15 00:19:34;;;;;;;;;;;25.20;36.30;;;;;;5100739;28;20366;-48
2022/06/15 00:21:59;;;;;;;;;;;25.20;36.30;;;;;;5084461;28;19977;-46
2022/06/15 00:24:25;;;;;;;;;;;25.20;36.30;;;;;;5099159;28;19900;-44
2022/06/15 00:26:50;;;;;;;;;;;25.10;36.30;;;;;;5099311;28;19983;-47
2022/06/15 00:29:16;;;;;;;;;;;25.20;36.40;;;;;;5097501;28;19953;-48
2022/06/15 00:31:42;;;;;;;;;;;25.20;36.40;;;;;;5095588;28;20274;-42
2022/06/15 00:34:07;;;;;;;;;;;25.10;36.30;;;;;;5096578;28;19900;-42
2022/06/15 00:36:33;;;;;;;;;;;25.10;36.40;;;;;;5095344;28;19912;-45
2022/06/15 00:38:59;;;;;;;;;;;25.10;36.40;;;;;;5095589;28;19904;-48
2022/06/15 00:41:24;;;;;;;;;;;25.10;36.40;;;;;;5095772;28;19904;-50
2022/06/15 00:43:55;;;;;;;;;;;25.10;36.40;;;;;;5095901;28;20430;-47
2022/06/15 00:46:25;;;;;;;;;;;25.10;36.40;;;;;;5095626;28;19900;-51
2022/06/15 00:49:08;;;;;;;;;;;25.10;36.40;;;;;;5095962;28;19903;-49
2022/06/15 00:51:34;;;;;;;;;;;25.10;36.50;;;;;;5095182;28;19913;-47
2022/06/15 00:54:00;;;;;;;;;;;25.10;36.50;;;;;;5096199;28;19911;-45
2022/06/15 00:56:27;;;;;;;;;;;25.10;36.60;;;;;;5097777;28;19908;-47
2022/06/15 00:58:53;;;;;;;;;;;25.10;36.60;;;;;;5096926;28;19992;-45
2022/06/15 01:01:19;;;;;;;;;;;25.10;36.70;;;;;;5097543;28;19947;-46
2022/06/15 01:03:46;;;;;;;;;;;25.10;36.60;;;;;;5098291;28;19900;-43
2022/06/15 01:06:22;;;;;;;;;;;25.10;36.70;;;;;;5099273;28;19907;-42
2022/06/15 01:08:53;;;;;;;;;;;25.10;36.70;;;;;;5099957;28;19923;-47
2022/06/15 01:11:45;;;;;;;;;;;25.10;36.70;;;;;;5099102;28;20422;-43
2022/06/15 01:14:30;;;;;;;;;;;25.00;36.60;;;;;;5097045;28;19900;-49
2022/06/15 01:16:56;;;;;;;;;;;25.10;36.70;;;;;;5099728;28;19908;-48
2022/06/15 01:19:28;;;;;;;;;;;25.10;36.70;;;;;;5098299;28;19904;-50
2022/06/15 01:22:03;;;;;;;;;;;25.00;36.70;;;;;;5097684;28;19935;-43
2022/06/15 01:24:32;;;;;;;;;;;25.00;36.70;;;;;;5097762;28;19904;-50
2022/06/15 01:27:17;;;;;;;;;;;25.00;36.60;;;;;;5099402;28;19947;-47
2022/06/15 01:29:45;;;;;;;;;;;25.00;36.70;;;;;;5100325;28;20457;-43
2022/06/15 01:32:14;;;;;;;;;;;25.00;36.70;;;;;;5100028;28;19900;-47
2022/06/15 01:34:58;;;;;;;;;;;25.00;36.70;;;;;;5097510;28;19904;-49
2022/06/15 01:37:31;;;;;;;;;;;25.00;36.80;;;;;;5097640;28;19908;-48
2022/06/15 01:39:58;;;;;;;;;;;25.00;36.80;;;;;;5097242;28;19905;-47
2022/06/15 01:42:25;;;;;;;;;;;25.00;36.80;;;;;;5097184;28;19906;-43
2022/06/15 01:44:53;;;;;;;;;;;24.90;36.80;;;;;;5096478;28;19907;-51
2022/06/15 01:47:20;;;;;;;;;;;25.00;36.90;;;;;;5096062;28;19949;-50
2022/06/15 01:49:50;;;;;;;;;;;25.00;36.90;;;;;;5095543;28;19906;-48
2022/06/15 01:52:18;;;;;;;;;;;25.00;36.90;;;;;;5101067;28;19905;-46
2022/06/15 01:55:05;;;;;;;;;;;25.00;36.90;;;;;;5100371;28;19900;-42
2022/06/15 01:57:31;;;;;;;;;;;24.90;36.90;;;;;;5099969;28;19915;-43
2022/06/15 02:00:04;;;;;;;;;;;24.90;36.90;;;;;;5100286;28;19901;-48
2022/06/15 02:02:30;;;;;;;;;;;24.90;36.90;;;;;;5083003;28;19908;-46
2022/06/15 02:04:58;;;;;;;;;;;24.90;36.90;;;;;;5102338;28;19908;-44
2022/06/15 02:07:23;;;;;;;;;;;24.90;37.00;;;;;;5102200;28;19900;-47
2022/06/15 02:09:50;;;;;;;;;;;25.00;37.00;;;;;;5103638;28;20006;-48
2022/06/15 02:12:17;;;;;;;;;;;24.90;37.00;;;;;;5104214;28;19907;-44
2022/06/15 02:14:44;;;;;;;;;;;24.90;37.10;;;;;;5101979;28;19901;-44
2022/06/15 02:17:17;;;;;;;;;;;24.90;37.00;;;;;;5102889;28;19915;-44
2022/06/15 02:19:43;;;;;;;;;;;24.90;37.10;;;;;;5102200;28;19907;-44
2022/06/15 02:22:11;;;;;;;;;;;24.90;37.10;;;;;;5101633;28;19912;-46
2022/06/15 02:24:36;;;;;;;;;;;24.90;37.10;;;;;;5103535;28;19900;-49
2022/06/15 02:27:02;;;;;;;;;;;24.90;37.10;;;;;;5103932;28;19900;-46
2022/06/15 02:29:28;;;;;;;;;;;24.90;37.20;;;;;;5103583;28;19900;-47
2022/06/15 02:31:54;;;;;;;;;;;24.90;37.20;;;;;;5102900;28;19900;-50
2022/06/15 02:34:20;;;;;;;;;;;24.90;37.30;;;;;;5100950;28;19900;-44
2022/06/15 02:36:46;;;;;;;;;;;24.90;37.30;;;;;;5102641;28;20458;-48
2022/06/15 02:39:11;;;;;;;;;;;24.90;37.30;;;;;;5102865;28;19904;-46
2022/06/15 02:41:37;;;;;;;;;;;24.90;37.30;;;;;;5101580;28;19950;-48
2022/06/15 02:44:03;;;;;;;;;;;24.90;37.90;;;;;;5103657;28;19900;-48
2022/06/15 02:46:29;;;;;;;;;;;24.90;37.30;;;;;;5102553;28;19904;-45
2022/06/15 02:48:55;;;;;;;;;;;24.90;37.40;;;;;;5102136;28;19911;-47
2022/06/15 02:51:26;;;;;;;;;;;24.90;37.40;;;;;;5103127;28;19947;-47
2022/06/15 02:53:52;;;;;;;;;;;24.90;37.40;;;;;;5101860;28;19900;-49
2022/06/15 02:56:19;;;;;;;;;;;24.90;37.40;;;;;;5101879;28;19908;-47
2022/06/15 02:58:47;;;;;;;;;;;24.80;37.40;;;;;;5101417;28;19907;-43
2022/06/15 03:01:14;;;;;;;;;;;24.80;37.40;;;;;;5102483;28;20025;-49
2022/06/15 03:03:40;;;;;;;;;;;24.80;37.40;;;;;;5100700;28;19900;-43
2022/06/15 03:06:13;;;;;;;;;;;24.90;37.40;;;;;;5102023;28;19907;-49
2022/06/15 03:08:39;;;;;;;;;;;24.90;37.40;;;;;;5100926;28;19904;-51
2022/06/15 03:11:05;;;;;;;;;;;24.80;37.40;;;;;;5099359;28;20366;-45
2022/06/15 03:13:31;;;;;;;;;;;24.80;37.40;;;;;;5100452;28;19946;-47
2022/06/15 03:15:58;;;;;;;;;;;24.80;37.50;;;;;;5101504;28;19952;-43
2022/06/15 03:18:24;;;;;;;;;;;24.80;37.40;;;;;;5101074;28;19991;-43
2022/06/15 03:20:50;;;;;;;;;;;24.80;37.50;;;;;;5099800;28;19907;-43
2022/06/15 03:23:16;;;;;;;;;;;24.80;37.50;;;;;;5099003;28;19944;-42
2022/06/15 03:25:42;;;;;;;;;;;24.80;37.50;;;;;;5099529;28;20015;-44
2022/06/15 03:28:07;;;;;;;;;;;24.80;37.50;;;;;;5099262;28;20370;-44
2022/06/15 03:30:33;;;;;;;;;;;24.80;37.50;;;;;;5099489;28;19934;-44
2022/06/15 03:32:58;;;;;;;;;;;24.80;37.50;;;;;;5099474;28;19908;-46
2022/06/15 03:35:34;;;;;;;;;;;24.80;37.60;;;;;;5100668;28;19904;-43
2022/06/15 03:38:00;;;;;;;;;;;24.80;37.60;;;;;;5099834;28;19919;-51
2022/06/15 03:40:26;;;;;;;;;;;24.80;37.60;;;;;;5099360;28;19908;-49
2022/06/15 03:42:51;;;;;;;;;;;24.80;37.60;;;;;;5098157;28;19904;-50
2022/06/15 03:45:17;;;;;;;;;;;24.80;37.60;;;;;;5100788;28;20355;-44
2022/06/15 03:47:43;;;;;;;;;;;24.80;37.60;;;;;;5082323;28;19927;-47
2022/06/15 03:50:09;;;;;;;;;;;24.80;37.80;;;;;;5100940;28;19953;-49
2022/06/15 03:52:35;;;;;;;;;;;24.80;37.70;;;;;;5101249;28;19900;-49
2022/06/15 03:55:01;;;;;;;;;;;24.80;37.70;;;;;;5102122;28;19973;-47
2022/06/15 03:57:26;;;;;;;;;;;24.80;37.70;;;;;;5101672;28;20374;-47
2022/06/15 03:59:52;;;;;;;;;;;24.90;37.80;;;;;;5100053;28;19900;-51
2022/06/15 04:02:18;;;;;;;;;;;24.80;37.70;;;;;;5099934;28;19904;-46
2022/06/15 04:04:44;;;;;;;;;;;24.90;37.70;;;;;;5098928;28;19967;-49
2022/06/15 04:08:34;;;;;;;;;;;25.00;37.60;;;;;;5100453;28;19943;-47
2022/06/15 04:09:55;;;;;;;;;;;25.00;37.60;;;;;;5099175;28;19900;-50
2022/06/15 04:12:21;;;;;;;;;;;25.00;37.50;;;;;;5099941;28;19979;-47
2022/06/15 04:14:47;;;;;;;;;;;25.10;37.50;;;;;;5099534;28;19943;-49
2022/06/15 04:17:13;;;;;;;;;;;25.10;37.50;;;;;;5100633;28;19915;-46
2022/06/15 04:19:39;;;;;;;;;;;25.20;37.40;;;;;;5101260;28;19922;-48
2022/06/15 04:22:05;;;;;;;;;;;25.20;37.30;;;;;;5099868;28;20379;-43
2022/06/15 04:24:31;;;;;;;;;;;25.20;37.10;;;;;;5098002;28;19907;-43
2022/06/15 04:26:57;;;;;;;;;;;25.30;37.10;;;;;;5099002;28;19912;-46
2022/06/15 04:29:23;;;;;;;;;;;25.30;37.00;;;;;;5100362;28;19921;-51
2022/06/15 04:31:48;;;;;;;;;;;25.40;36.90;;;;;;5099681;28;19943;-48
2022/06/15 04:34:14;;;;;;;;;;;25.50;36.80;;;;;;5098982;28;20252;-50
2022/06/15 04:36:40;;;;;;;;;;;25.50;36.70;;;;;;5099603;28;19912;-51
2022/06/15 04:39:05;;;;;;;;;;;25.70;36.70;;;;;;5099367;28;19982;-44
2022/06/15 04:41:32;;;;;;;;;;;25.70;36.50;;;;;;5098688;28;20488;-47
2022/06/15 04:43:58;;;;;;;;;;;25.80;37.00;;;;;;5099395;28;19915;-49
2022/06/15 04:46:24;;;;;;;;;;;25.90;36.30;;;;;;5099221;28;19905;-45
2022/06/15 04:48:49;;;;;;;;;;;26.00;36.10;;;;;;5097720;28;19955;-46
2022/06/15 04:51:20;;;;;;;;;;;26.20;36.00;;;;;;5098260;28;19943;-47
2022/06/15 04:53:46;;;;;;;;;;;26.20;35.80;;;;;;5097034;28;19940;-48
2022/06/15 04:56:12;;;;;;;;;;;26.30;35.70;;;;;;5097615;28;19915;-45
2022/06/15 04:58:39;;;;;;;;;;;26.40;35.50;;;;;;5095471;28;19904;-52
2022/06/15 05:01:06;;;;;;;;;;;26.60;35.30;;;;;;5096256;28;20285;-43
2022/06/15 05:03:31;;;;;;;;;;;26.70;35.20;;;;;;5096554;28;19900;-43
2022/06/15 05:05:57;;;;;;;;;;;26.80;35.70;;;;;;5080289;28;20285;-41
2022/06/15 05:08:23;;;;;;;;;;;26.90;34.90;;;;;;5098397;28;19901;-49
2022/06/15 05:10:49;;;;;;;;;;;27.00;34.80;;;;;;5097150;28;20358;-43
2022/06/15 05:13:15;;;;;;;;;;;27.10;34.60;;;;;;5098313;28;20297;-48
2022/06/15 05:15:41;;;;;;;;;;;27.20;34.40;;;;;;5097722;28;19908;-46
2022/06/15 05:18:07;;;;;;;;;;;27.30;34.20;;;;;;5098698;28;19914;-43
2022/06/15 05:20:36;;;;;;;;;;;27.40;34.00;;;;;;5099160;28;19900;-46
2022/06/15 05:23:02;;;;;;;;;;;27.50;33.90;;;;;;5098340;28;19919;-48
2022/06/15 05:25:28;;;;;;;;;;;27.60;33.80;;;;;;5100589;28;19904;-46
